createdAt,value
2019-01-16T00:03:56.535Z,86.38
2019-01-16T00:06:42.518Z,86.15
2019-01-16T00:09:28.492Z,85.83
2019-01-16T00:12:14.491Z,85.07
2019-01-16T00:15:00.494Z,84.95
2019-01-16T00:17:46.461Z,85.48
2019-01-16T00:20:32.449Z,85.82
2019-01-16T00:23:18.438Z,85.94
2019-01-16T00:26:04.483Z,86.41
2019-01-16T00:31:24.144Z,85.74
2019-01-16T00:34:10.131Z,85.02
2019-01-16T00:36:56.133Z,84.85
2019-01-16T00:42:15.887Z,84.53
2019-01-16T00:45:01.869Z,84.81
2019-01-16T00:47:47.870Z,84.68
2019-01-16T00:50:33.870Z,84.91
2019-01-16T00:53:19.861Z,84.74
2019-01-16T00:56:05.845Z,84.45
2019-01-16T01:03:59.505Z,84.60
2019-01-16T01:06:45.491Z,84.49
2019-01-16T01:12:05.318Z,83.66
2019-01-16T01:17:25.257Z,83.59
2019-01-16T01:20:11.251Z,83.72
2019-01-16T01:22:57.220Z,83.50
2019-01-16T01:25:43.208Z,83.29
2019-01-16T01:28:29.184Z,83.04
2019-01-16T01:31:15.173Z,83.16
2019-01-16T01:36:48.771Z,83.28
2019-01-16T01:39:34.754Z,83.43
2019-01-16T01:44:58.284Z,83.13
2019-01-16T01:47:44.281Z,82.96
2019-01-16T01:50:30.268Z,83.16
2019-01-16T01:53:16.303Z,83.03
2019-01-16T01:56:02.281Z,82.55
2019-01-16T01:58:48.265Z,83.00
2019-01-16T02:01:34.250Z,83.02
2019-01-16T02:06:57.672Z,83.39
2019-01-16T02:09:43.669Z,83.49
2019-01-16T02:12:29.646Z,83.30
2019-01-16T02:15:15.635Z,83.07
2019-01-16T02:18:01.611Z,82.73
2019-01-16T02:20:47.623Z,82.52
2019-01-16T02:23:33.605Z,82.53
2019-01-16T02:26:19.602Z,82.39
2019-01-16T02:29:05.595Z,82.36
2019-01-16T02:31:51.579Z,82.55
2019-01-16T02:34:37.556Z,82.35
2019-01-16T02:37:23.546Z,82.18
2019-01-16T02:40:09.522Z,82.54
2019-01-16T02:42:55.512Z,82.49
2019-01-16T02:48:29.084Z,82.42
2019-01-16T02:56:36.817Z,81.82
2019-01-16T02:59:22.919Z,81.83
2019-01-16T03:02:08.910Z,82.01
2019-01-16T03:04:54.932Z,81.92
2019-01-16T03:10:28.716Z,81.92
2019-01-16T03:13:14.690Z,81.89
2019-01-16T03:16:00.782Z,82.39
2019-01-16T03:23:58.488Z,82.32
2019-01-16T03:34:29.976Z,82.04
2019-01-16T03:37:15.949Z,82.38
2019-01-16T03:40:01.943Z,81.84
2019-01-16T03:45:35.500Z,81.86
2019-01-16T03:48:21.499Z,81.70
2019-01-16T03:53:41.301Z,82.14
2019-01-16T03:56:27.284Z,82.08
2019-01-16T03:59:13.259Z,82.19
2019-01-16T04:04:36.875Z,82.27
2019-01-16T04:07:22.872Z,82.43
2019-01-16T04:10:08.849Z,82.17
2019-01-16T04:12:54.836Z,82.35
2019-01-16T04:15:40.820Z,82.49
2019-01-16T04:21:04.266Z,83.02
2019-01-16T04:23:50.254Z,82.75
2019-01-16T04:26:36.236Z,82.64
2019-01-16T04:37:11.381Z,83.02
2019-01-16T04:45:05.347Z,82.26
2019-01-16T04:47:51.347Z,82.07
2019-01-16T04:50:37.480Z,82.61
2019-01-16T04:56:11.071Z,82.64
2019-01-16T05:01:44.630Z,82.46
2019-01-16T05:04:30.611Z,82.43
2019-01-16T05:09:50.650Z,82.13
2019-01-16T05:12:36.637Z,82.18
2019-01-16T05:18:36.075Z,81.31
2019-01-16T05:26:43.314Z,81.80
2019-01-16T05:32:03.431Z,81.83
2019-01-16T05:34:49.400Z,81.76
2019-01-16T05:37:35.397Z,81.74
2019-01-16T05:40:21.408Z,81.45
2019-01-16T05:43:07.381Z,81.87
2019-01-16T05:48:30.825Z,81.98
2019-01-16T05:53:51.044Z,81.53
2019-01-16T05:56:37.056Z,81.92
2019-01-16T06:02:36.303Z,82.34
2019-01-16T06:08:23.012Z,82.32
2019-01-16T06:11:09.013Z,81.08
2019-01-16T06:16:32.364Z,81.50
2019-01-16T06:19:18.350Z,81.22
2019-01-16T06:22:04.341Z,80.83
2019-01-16T06:24:50.344Z,81.16
2019-01-16T06:27:36.320Z,81.34
2019-01-16T06:30:43.871Z,81.75
2019-01-16T06:33:29.841Z,82.05
2019-01-16T06:38:49.516Z,81.04
2019-01-16T06:46:46.983Z,81.73
2019-01-16T06:49:32.961Z,82.20
2019-01-16T06:52:18.952Z,81.80
2019-01-16T06:55:04.924Z,81.36
2019-01-16T06:57:50.912Z,80.75
2019-01-16T07:00:36.895Z,80.77
2019-01-16T07:08:34.483Z,80.93
2019-01-16T07:11:20.479Z,80.86
2019-01-16T07:14:06.470Z,80.55
2019-01-16T07:16:52.444Z,80.41
2019-01-16T07:19:38.432Z,80.82
2019-01-16T07:22:24.430Z,80.84
2019-01-16T07:25:10.428Z,81.30
2019-01-16T07:27:56.408Z,80.81
2019-01-16T07:30:42.394Z,81.26
2019-01-16T07:33:28.372Z,80.94
2019-01-16T07:36:14.360Z,81.01
2019-01-16T07:39:00.331Z,80.62
2019-01-16T07:41:46.328Z,80.58
2019-01-16T07:44:32.303Z,80.88
2019-01-16T07:47:18.304Z,81.27
2019-01-16T07:50:04.294Z,80.94
2019-01-16T07:55:24.054Z,82.03
2019-01-16T08:05:51.999Z,80.78
2019-01-16T08:14:06.763Z,78.75
2019-01-16T08:19:26.933Z,79.14
2019-01-16T08:22:12.920Z,79.17
2019-01-16T08:24:58.895Z,79.60
2019-01-16T08:27:44.890Z,79.48
2019-01-16T08:30:31.062Z,79.56
2019-01-16T08:33:17.059Z,79.83
2019-01-16T08:36:03.026Z,79.87
2019-01-16T08:38:49.037Z,79.41
2019-01-16T08:41:35.028Z,78.95
2019-01-16T08:46:58.467Z,79.61
2019-01-16T08:49:44.487Z,79.58
2019-01-16T08:52:30.461Z,79.49
2019-01-16T08:55:16.455Z,79.31
2019-01-16T08:58:02.439Z,79.32
2019-01-16T09:03:25.999Z,79.08
2019-01-16T09:06:12.012Z,79.36
2019-01-16T09:08:58.012Z,79.65
2019-01-16T09:11:44.003Z,79.56
2019-01-16T09:14:29.989Z,79.22
2019-01-16T09:17:15.966Z,79.45
2019-01-16T09:22:35.863Z,79.76
2019-01-16T09:25:13.782Z,80.07
2019-01-16T09:27:59.759Z,80.15
2019-01-16T09:33:19.501Z,80.34
2019-01-16T09:41:13.117Z,81.07
2019-01-16T09:43:59.103Z,80.40
2019-01-16T09:46:45.091Z,80.61
2019-01-16T09:49:31.070Z,81.13
2019-01-16T09:52:17.092Z,81.16
2019-01-16T09:55:03.068Z,80.93
2019-01-16T09:57:49.059Z,80.83
2019-01-16T10:08:43.499Z,81.14
2019-01-16T10:11:29.474Z,81.14
2019-01-16T10:14:15.488Z,80.91
2019-01-16T10:17:01.474Z,81.44
2019-01-16T10:19:47.466Z,80.81
2019-01-16T10:27:44.695Z,82.13
2019-01-16T10:33:44.655Z,82.26
2019-01-16T10:36:30.640Z,82.37
2019-01-16T10:39:16.612Z,81.55
2019-01-16T10:42:02.627Z,82.03
2019-01-16T10:44:48.616Z,81.49
2019-01-16T10:47:34.637Z,81.36
2019-01-16T10:50:20.611Z,81.98
2019-01-16T10:53:06.616Z,82.31
2019-01-16T10:55:52.590Z,81.38
2019-01-16T10:58:38.592Z,81.58
2019-01-16T11:12:14.470Z,82.59
2019-01-16T11:25:16.099Z,82.29
2019-01-16T11:30:36.046Z,82.28
2019-01-16T11:33:22.083Z,82.44
2019-01-16T11:36:08.059Z,82.52
2019-01-16T11:38:54.052Z,82.45
2019-01-16T11:41:40.029Z,82.91
2019-01-16T11:44:26.028Z,82.28
2019-01-16T11:49:59.606Z,82.88
2019-01-16T11:52:45.593Z,82.72
2019-01-16T11:55:31.584Z,82.42
2019-01-16T11:58:17.564Z,82.46
2019-01-16T12:01:03.554Z,82.83
2019-01-16T12:03:49.528Z,82.45
2019-01-16T12:06:35.540Z,83.12
2019-01-16T12:12:15.276Z,83.16
2019-01-16T12:20:44.256Z,82.15
2019-01-16T12:26:17.864Z,81.98
2019-01-16T12:29:03.840Z,82.01
2019-01-16T12:37:01.239Z,82.34
2019-01-16T12:39:47.215Z,81.61
2019-01-16T12:42:33.202Z,81.45
2019-01-16T12:45:19.182Z,81.50
2019-01-16T12:48:05.172Z,81.32
2019-01-16T12:50:51.150Z,81.74
2019-01-16T12:53:37.140Z,82.43
2019-01-16T12:56:35.764Z,81.90
2019-01-16T13:07:06.947Z,82.28
2019-01-16T13:09:52.933Z,82.62
2019-01-16T13:12:38.937Z,82.87
2019-01-16T13:15:46.510Z,82.26
2019-01-16T13:21:20.069Z,81.25
2019-01-16T13:24:06.052Z,82.38
2019-01-16T13:29:26.020Z,81.88
2019-01-16T13:34:49.587Z,82.16
2019-01-16T13:42:43.507Z,82.06
2019-01-16T13:45:29.581Z,82.03
2019-01-16T13:48:15.567Z,81.73
2019-01-16T13:51:01.556Z,81.46
2019-01-16T13:53:47.545Z,81.75
2019-01-16T13:56:33.522Z,82.38
2019-01-16T13:59:19.520Z,81.95
2019-01-16T14:04:39.508Z,82.22
2019-01-16T14:07:25.584Z,82.16
2019-01-16T14:10:11.580Z,81.65
2019-01-16T14:12:57.576Z,81.60
2019-01-16T14:15:43.567Z,81.14
2019-01-16T14:18:29.545Z,81.72
2019-01-16T14:21:15.532Z,81.30
2019-01-16T14:32:00.725Z,81.32
2019-01-16T14:34:46.695Z,81.15
2019-01-16T14:37:32.684Z,81.46
2019-01-16T14:40:18.668Z,80.82
2019-01-16T14:43:04.672Z,80.76
2019-01-16T14:51:12.168Z,81.49
2019-01-16T14:59:05.931Z,80.74
2019-01-16T15:01:51.919Z,80.08
2019-01-16T15:04:37.896Z,79.05
2019-01-16T15:07:23.886Z,79.94
2019-01-16T15:10:09.859Z,80.04
2019-01-16T15:12:55.843Z,80.03
2019-01-16T15:15:41.815Z,80.57
2019-01-16T15:21:05.350Z,80.95
2019-01-16T15:28:59.367Z,79.77
2019-01-16T15:31:45.351Z,80.06
2019-01-16T15:34:31.504Z,80.09
2019-01-16T15:40:05.083Z,80.17
2019-01-16T15:42:51.071Z,79.98
2019-01-16T15:45:37.060Z,79.58
2019-01-16T15:48:23.047Z,79.06
2019-01-16T15:51:09.047Z,79.69
2019-01-16T15:53:55.040Z,79.80
2019-01-16T15:56:41.012Z,80.09
2019-01-16T15:59:27.004Z,80.51
2019-01-16T16:02:13.089Z,80.59
2019-01-16T16:04:59.075Z,80.08
2019-01-16T16:07:45.049Z,79.68
2019-01-16T16:10:31.035Z,79.32
2019-01-16T16:13:17.071Z,79.68
2019-01-16T16:16:03.073Z,80.33
2019-01-16T16:18:49.060Z,79.87
2019-01-16T16:29:17.185Z,79.92
2019-01-16T16:32:03.210Z,80.61
2019-01-16T16:34:49.202Z,79.78
2019-01-16T16:37:35.210Z,80.09
2019-01-16T16:40:21.191Z,80.75
2019-01-16T16:43:07.200Z,80.08
2019-01-16T16:51:18.153Z,80.66
2019-01-16T16:54:04.149Z,79.98
2019-01-16T16:56:50.128Z,80.60
2019-01-16T16:59:36.143Z,81.04
2019-01-16T17:02:22.244Z,80.86
2019-01-16T17:05:08.268Z,81.39
2019-01-16T17:10:41.864Z,80.80
2019-01-16T17:23:57.555Z,81.07
2019-01-16T17:29:31.141Z,81.72
2019-01-16T17:35:08.923Z,81.91
2019-01-16T17:37:54.902Z,81.49
2019-01-16T17:40:40.897Z,81.65
2019-01-16T17:46:14.496Z,81.94
2019-01-16T17:49:00.463Z,81.49
2019-01-16T17:51:46.463Z,81.81
2019-01-16T17:54:32.437Z,81.68
2019-01-16T17:57:18.441Z,81.49
2019-01-16T18:00:04.425Z,81.92
2019-01-16T18:02:50.428Z,81.62
2019-01-16T18:05:36.400Z,81.54
2019-01-16T18:11:16.624Z,80.81
2019-01-16T18:14:02.664Z,81.37
2019-01-16T18:19:36.238Z,82.42
2019-01-16T18:22:22.308Z,82.97
2019-01-16T18:25:08.309Z,83.59
2019-01-16T18:36:09.904Z,83.67
2019-01-16T18:38:55.901Z,84.30
2019-01-16T18:41:41.903Z,84.08
2019-01-16T18:44:27.907Z,83.53
2019-01-16T18:52:38.894Z,84.18
2019-01-16T18:58:25.964Z,83.78
2019-01-16T19:03:45.983Z,85.02
2019-01-16T19:09:09.272Z,84.23
2019-01-16T19:17:03.158Z,84.90
2019-01-16T19:19:49.147Z,85.09
2019-01-16T19:22:35.157Z,84.22
2019-01-16T19:25:21.140Z,83.97
2019-01-16T19:28:07.158Z,84.59
2019-01-16T19:30:53.169Z,85.61
2019-01-16T19:36:12.877Z,84.18
2019-01-16T19:38:58.911Z,83.85
2019-01-16T19:41:44.895Z,85.11
2019-01-16T19:44:30.913Z,85.30
2019-01-16T19:50:04.510Z,84.46
2019-01-16T19:52:50.488Z,84.53
2019-01-16T19:55:36.496Z,85.85
2019-01-16T20:01:10.083Z,85.52
2019-01-16T20:03:56.060Z,85.93
2019-01-16T20:06:42.058Z,84.99
2019-01-16T20:09:28.128Z,86.17
2019-01-16T20:14:48.146Z,86.09
2019-01-16T20:17:34.134Z,85.94
2019-01-16T20:20:20.143Z,85.85
2019-01-16T20:23:11.091Z,85.52
2019-01-16T20:25:54.001Z,84.98
2019-01-16T20:28:39.984Z,85.61
2019-01-16T20:34:03.477Z,86.33
2019-01-16T20:36:49.486Z,86.04
2019-01-16T20:39:35.454Z,85.74
2019-01-16T20:42:21.443Z,86.32
2019-01-16T20:45:07.435Z,86.23
2019-01-16T20:47:53.445Z,85.69
2019-01-16T20:50:39.432Z,86.35
2019-01-16T20:53:25.440Z,85.94
2019-01-16T20:56:11.408Z,86.86
2019-01-16T21:01:34.931Z,85.87
2019-01-16T21:06:54.971Z,86.54
2019-01-16T21:09:40.957Z,86.36
2019-01-16T21:15:01.161Z,86.56
2019-01-16T21:18:08.734Z,86.60
2019-01-16T21:20:54.757Z,87.20
2019-01-16T21:23:40.731Z,87.53
2019-01-16T21:26:26.737Z,86.32
2019-01-16T21:29:12.730Z,87.45
2019-01-16T21:31:58.688Z,87.53
2019-01-16T21:34:44.683Z,87.00
2019-01-16T21:37:30.663Z,86.83
2019-01-16T21:40:16.652Z,87.18
2019-01-16T21:43:02.626Z,87.08
2019-01-16T21:48:24.215Z,87.40
2019-01-16T21:51:10.204Z,87.51
2019-01-16T21:53:56.178Z,87.44
2019-01-16T21:56:42.168Z,86.79
2019-01-16T22:04:49.548Z,86.64
2019-01-16T22:07:35.524Z,87.36
2019-01-16T22:10:43.072Z,86.78
2019-01-16T22:13:29.065Z,86.67
2019-01-16T22:19:02.664Z,86.97
2019-01-16T22:21:48.632Z,86.70
2019-01-16T22:24:34.659Z,87.29
2019-01-16T22:27:20.635Z,87.14
2019-01-16T22:30:06.655Z,86.68
2019-01-16T22:32:52.633Z,86.90
2019-01-16T22:35:38.623Z,86.77
2019-01-16T22:38:24.598Z,86.77
2019-01-16T22:41:10.598Z,86.93
2019-01-16T22:43:56.571Z,86.87
2019-01-16T22:46:42.560Z,86.65
2019-01-16T22:52:16.140Z,86.71
2019-01-16T22:55:02.121Z,86.94
2019-01-16T22:57:48.108Z,87.35
2019-01-16T23:03:34.737Z,87.63
2019-01-16T23:06:20.714Z,87.55
2019-01-16T23:09:06.736Z,86.86
2019-01-16T23:11:52.717Z,87.43
2019-01-16T23:14:38.704Z,87.52
2019-01-16T23:17:24.681Z,87.21
2019-01-16T23:20:10.682Z,87.17
2019-01-16T23:25:44.345Z,87.14
2019-01-16T23:31:17.905Z,88.01
2019-01-16T23:36:51.491Z,87.68
2019-01-16T23:42:25.071Z,87.56
2019-01-16T23:45:11.046Z,87.94
2019-01-16T23:47:57.065Z,88.32
2019-01-16T23:50:43.052Z,88.06
2019-01-16T23:53:29.051Z,87.98
2019-01-16T23:56:15.028Z,87.97
2019-01-16T23:59:01.136Z,87.38
